Terminal Aerodrome Forecast
Issued by NWS

Home | Current Version | Previous Version | Graphics & Text | Print | Product List | Glossary On
Versions: 1 2 3 4 5 6 7 8 9 10 11 12 13 14 15 16 17 18 19 20 21 22 23 24 25 26
000
FTUS43 KICT 301741
TAFSLN
TAF
KSLN 301741Z 3018/3118 VRB03KT P6SM VCSH SCT025 BKN100
     FM302100 06005KT P6SM VCTS SCT025 BKN040CB
     FM310300 06005KT P6SM VCSH SCT025 BKN040
     FM311000 05005KT 5SM BR VCSH SCT015 BKN025=

USA.gov is the U.S. government's official web portal to all federal, state and local government web resources and services.